Etusivu
METAR-TAF:

METAR-TAF

Lentoasemat :

Bobby L. Chain Municipal Airport

Hattiesburg, Mississippi, Yhdysvallat

Leveyspiiri: 31-15-54N, Pituuspiiri: 089-15-11W, korkeus merenpinnasta: 46 m

METAR: puuttuu

Aika: 23:23 (05:23 UTC)

Sääennuste

Tämä raportti tehtiin 4 tuntia ja 54 minuuttia sitten, kello 00.29 UTC
Ennuste voimassa 26. päivästä klo 00 UTC - 26. päivään klo 24 UTC
Tuuli 4 kn lännestä/luoteesta
Näkyvyys: 10 km
Hajanaisia pilviä 25000 ft:n korkeudessa
From 26. päivästä klo 0700 UTC
Tuuli kn pohjoisesta
Näkyvyys: 10 km
Pilvistä 10000 ft:n korkeudessa
From 26. päivästä klo 1600 UTC
Tuuli 4 kn etelästä
Näkyvyys: 9.7 km
Pilvistä 5000 ft:n korkeudessa
heikkoa sadetta
From 26. päivästä klo 1900 UTC
Tuuli 6 kn etelästä
Näkyvyys: 6.4 km
Pilvistä 2500 ft:n korkeudessa
utua, sadekuuroja näköpiirissä

TAF: KHBG 260029Z 2600/2624 30004KT P6SM SCT250 FM260700 00000KT P6SM OVC100 FM261600 17004KT 6SM -RA OVC050 FM261900 17006KT 4SM BR VCSH OVC025 AMD NOT SKED

Säähavainnot ja -ennusteet yli 4000 lentoasemalta (METAR- ja TAF-raportit).

Käytössä olevat sääasemat on merkitty karttaan keltaisilla ja punaisilla pisteillä.

Aseta hiiri pisteen päälle nähdäksesi sääaseman nimen.

Klikkaa sitten nähdäksesi säähavainnot ja -ennusteet.

Kartan vaihtaminen: klikkaa mustalla rastilla varustettuja vihreitä pisteitä, niin voit zoomata sisään; viivalla varustettua vihreää pistettä, niin voit zoomata ulos tai vihreitä nuolia, niin pääset viereisille kartoille.


METAR-TAF: